sensor_id;sensor_type;location;lat;lon;timestamp;pressure;altitude;pressure_sealevel;temperature;humidity
51297;BME280;37380;45.186;9.792;2023-05-01T00:01:34;100864.38;;;16.73;100.00
51297;BME280;37380;45.186;9.792;2023-05-01T00:04:02;100915.75;;;17.04;100.00
51297;BME280;37380;45.186;9.792;2023-05-01T00:06:29;100887.47;;;16.92;100.00
51297;BME280;37380;45.186;9.792;2023-05-01T00:09:05;100920.22;;;17.08;100.00
51297;BME280;37380;45.186;9.792;2023-05-01T00:12:01;100913.91;;;16.94;100.00
51297;BME280;37380;45.186;9.792;2023-05-01T00:14:29;100878.53;;;16.80;100.00
51297;BME280;37380;45.186;9.792;2023-05-01T00:16:56;100845.72;;;16.61;100.00
51297;BME280;37380;45.186;9.792;2023-05-01T00:19:30;100892.44;;;16.69;100.00
51297;BME280;37380;45.186;9.792;2023-05-01T00:22:24;100869.94;;;16.29;100.00
51297;BME280;37380;45.186;9.792;2023-05-01T00:24:51;100842.50;;;16.15;100.00
51297;BME280;37380;45.186;9.792;2023-05-01T00:27:18;100908.19;;;16.62;100.00
51297;BME280;37380;45.186;9.792;2023-05-01T00:30:06;100885.22;;;16.55;100.00
51297;BME280;37380;45.186;9.792;2023-05-01T00:32:59;100900.66;;;16.92;100.00
51297;BME280;37380;45.186;9.792;2023-05-01T00:35:28;100896.31;;;16.94;100.00
51297;BME280;37380;45.186;9.792;2023-05-01T00:37:56;100884.66;;;16.77;100.00
51297;BME280;37380;45.186;9.792;2023-05-01T00:40:24;100903.25;;;16.86;100.00
51297;BME280;37380;45.186;9.792;2023-05-01T00:42:51;100884.53;;;16.68;100.00
51297;BME280;37380;45.186;9.792;2023-05-01T00:45:18;100898.44;;;16.58;100.00
51297;BME280;37380;45.186;9.792;2023-05-01T00:47:46;100874.69;;;16.56;100.00
51297;BME280;37380;45.186;9.792;2023-05-01T00:50:20;100892.31;;;16.60;100.00
51297;BME280;37380;45.186;9.792;2023-05-01T00:53:22;100875.59;;;16.57;100.00
51297;BME280;37380;45.186;9.792;2023-05-01T00:56:42;100854.38;;;16.47;100.00
51297;BME280;37380;45.186;9.792;2023-05-01T00:59:09;100875.69;;;16.66;100.00
51297;BME280;37380;45.186;9.792;2023-05-01T01:01:36;100901.09;;;16.58;100.00
51297;BME280;37380;45.186;9.792;2023-05-01T01:04:03;100840.16;;;16.36;100.00
51297;BME280;37380;45.186;9.792;2023-05-01T01:14:34;100896.19;;;16.87;100.00
51297;BME280;37380;45.186;9.792;2023-05-01T01:17:29;100904.25;;;16.97;100.00
51297;BME280;37380;45.186;9.792;2023-05-01T01:22:35;100904.09;;;16.82;100.00
51297;BME280;37380;45.186;9.792;2023-05-01T01:25:28;100906.88;;;16.93;100.00
51297;BME280;37380;45.186;9.792;2023-05-01T01:31:10;100898.88;;;16.88;100.00
51297;BME280;37380;45.186;9.792;2023-05-01T01:34:01;100889.16;;;16.86;100.00
51297;BME280;37380;45.186;9.792;2023-05-01T01:36:34;100903.91;;;16.70;100.00
51297;BME280;37380;45.186;9.792;2023-05-01T01:41:47;100888.84;;;16.61;100.00
51297;BME280;37380;45.186;9.792;2023-05-01T01:44:19;100877.16;;;16.42;100.00
51297;BME280;37380;45.186;9.792;2023-05-01T01:46:50;100845.31;;;16.27;100.00
51297;BME280;37380;45.186;9.792;2023-05-01T01:49:24;100878.22;;;16.55;100.00
51297;BME280;37380;45.186;9.792;2023-05-01T01:51:53;100888.72;;;16.53;100.00
51297;BME280;37380;45.186;9.792;2023-05-01T01:54:31;100857.88;;;16.46;100.00
51297;BME280;37380;45.186;9.792;2023-05-01T01:57:07;100903.63;;;16.50;100.00
51297;BME280;37380;45.186;9.792;2023-05-01T02:00:11;100888.41;;;16.29;100.00
51297;BME280;37380;45.186;9.792;2023-05-01T02:03:16;100876.53;;;15.99;100.00
51297;BME280;37380;45.186;9.792;2023-05-01T02:05:44;100883.63;;;16.03;100.00
51297;BME280;37380;45.186;9.792;2023-05-01T02:08:15;100913.84;;;16.27;100.00
51297;BME280;37380;45.186;9.792;2023-05-01T02:10:44;100856.88;;;15.79;100.00
51297;BME280;37380;45.186;9.792;2023-05-01T02:13:14;100914.38;;;16.03;100.00
51297;BME280;37380;45.186;9.792;2023-05-01T02:15:44;100921.38;;;16.01;100.00
51297;BME280;37380;45.186;9.792;2023-05-01T02:18:19;100901.03;;;15.92;100.00
51297;BME280;37380;45.186;9.792;2023-05-01T02:21:20;100867.41;;;15.79;100.00
51297;BME280;37380;45.186;9.792;2023-05-01T02:23:50;100848.31;;;15.92;100.00
51297;BME280;37380;45.186;9.792;2023-05-01T02:26:21;100894.53;;;16.28;100.00
51297;BME280;37380;45.186;9.792;2023-05-01T02:28:59;100862.59;;;16.08;100.00
51297;BME280;37380;45.186;9.792;2023-05-01T02:31:55;100872.28;;;16.09;100.00
51297;BME280;37380;45.186;9.792;2023-05-01T02:34:23;100889.13;;;16.19;100.00
51297;BME280;37380;45.186;9.792;2023-05-01T02:36:50;100871.06;;;15.87;100.00
51297;BME280;37380;45.186;9.792;2023-05-01T02:39:19;100833.22;;;15.82;100.00
51297;BME280;37380;45.186;9.792;2023-05-01T02:41:53;100858.84;;;15.92;100.00
51297;BME280;37380;45.186;9.792;2023-05-01T02:44:54;100881.97;;;16.09;100.00
51297;BME280;37380;45.186;9.792;2023-05-01T02:47:22;100853.44;;;15.83;100.00
51297;BME280;37380;45.186;9.792;2023-05-01T02:49:51;100821.78;;;15.80;100.00
51297;BME280;37380;45.186;9.792;2023-05-01T02:52:27;100875.91;;;16.17;100.00
51297;BME280;37380;45.186;9.792;2023-05-01T02:55:33;100876.69;;;16.09;100.00
51297;BME280;37380;45.186;9.792;2023-05-01T02:58:01;100833.28;;;15.87;100.00
51297;BME280;37380;45.186;9.792;2023-05-01T03:00:28;100884.72;;;16.19;100.00
51297;BME280;37380;45.186;9.792;2023-05-01T03:02:55;100806.94;;;15.87;100.00
51297;BME280;37380;45.186;9.792;2023-05-01T03:05:23;100823.84;;;16.02;100.00
51297;BME280;37380;45.186;9.792;2023-05-01T03:07:50;100863.50;;;16.10;100.00
51297;BME280;37380;45.186;9.792;2023-05-01T03:10:17;100868.69;;;16.05;100.00
51297;BME280;37380;45.186;9.792;2023-05-01T03:12:44;100871.13;;;15.90;100.00
51297;BME280;37380;45.186;9.792;2023-05-01T03:15:12;100805.44;;;15.48;100.00
51297;BME280;37380;45.186;9.792;2023-05-01T03:17:39;100827.63;;;15.63;100.00
51297;BME280;37380;45.186;9.792;2023-05-01T03:20:07;100868.66;;;16.02;100.00
51297;BME280;37380;45.186;9.792;2023-05-01T03:22:36;100856.97;;;15.85;100.00
51297;BME280;37380;45.186;9.792;2023-05-01T03:25:03;100861.63;;;16.00;100.00
51297;BME280;37380;45.186;9.792;2023-05-01T03:27:37;100833.22;;;15.82;100.00
51297;BME280;37380;45.186;9.792;2023-05-01T03:30:40;100821.50;;;15.63;100.00
51297;BME280;37380;45.186;9.792;2023-05-01T03:33:42;100833.94;;;15.72;100.00
51297;BME280;37380;45.186;9.792;2023-05-01T03:36:46;100840.06;;;15.69;100.00
51297;BME280;37380;45.186;9.792;2023-05-01T03:39:37;100825.78;;;15.58;100.00
51297;BME280;37380;45.186;9.792;2023-05-01T03:42:24;100848.09;;;15.78;100.00
51297;BME280;37380;45.186;9.792;2023-05-01T03:44:58;100878.06;;;15.85;100.00
51297;BME280;37380;45.186;9.792;2023-05-01T03:47:27;100863.81;;;15.71;100.00
51297;BME280;37380;45.186;9.792;2023-05-01T03:49:54;100824.91;;;15.57;100.00
51297;BME280;37380;45.186;9.792;2023-05-01T03:52:22;100805.31;;;15.40;100.00
51297;BME280;37380;45.186;9.792;2023-05-01T03:54:50;100834.28;;;15.40;100.00
51297;BME280;37380;45.186;9.792;2023-05-01T03:57:21;100839.69;;;15.48;100.00
51297;BME280;37380;45.186;9.792;2023-05-01T03:59:55;100820.84;;;15.25;100.00
51297;BME280;37380;45.186;9.792;2023-05-01T04:02:54;100823.38;;;15.19;100.00
51297;BME280;37380;45.186;9.792;2023-05-01T04:05:23;100858.31;;;15.61;100.00
51297;BME280;37380;45.186;9.792;2023-05-01T04:07:56;100871.09;;;15.38;100.00
51297;BME280;37380;45.186;9.792;2023-05-01T04:10:24;100873.88;;;15.46;100.00
51297;BME280;37380;45.186;9.792;2023-05-01T04:12:57;100812.28;;;15.38;100.00
51297;BME280;37380;45.186;9.792;2023-05-01T04:15:24;100864.38;;;15.56;100.00
51297;BME280;37380;45.186;9.792;2023-05-01T04:17:51;100869.06;;;15.72;100.00
51297;BME280;37380;45.186;9.792;2023-05-01T04:20:20;100813.13;;;15.34;100.00
51297;BME280;37380;45.186;9.792;2023-05-01T04:22:47;100870.31;;;15.44;100.00
51297;BME280;37380;45.186;9.792;2023-05-01T04:25:16;100848.13;;;15.30;100.00
51297;BME280;37380;45.186;9.792;2023-05-01T04:27:53;100865.00;;;15.41;100.00
51297;BME280;37380;45.186;9.792;2023-05-01T04:30:47;100861.91;;;15.15;100.00
51297;BME280;37380;45.186;9.792;2023-05-01T04:33:14;100875.59;;;15.44;100.00
51297;BME280;37380;45.186;9.792;2023-05-01T04:35:43;100880.06;;;15.48;100.00
51297;BME280;37380;45.186;9.792;2023-05-01T04:38:10;100829.88;;;15.39;100.00
51297;BME280;37380;45.186;9.792;2023-05-01T04:40:39;100822.06;;;14.95;100.00
51297;BME280;37380;45.186;9.792;2023-05-01T04:43:06;100887.09;;;15.48;100.00
51297;BME280;37380;45.186;9.792;2023-05-01T04:45:37;100881.56;;;15.35;100.00
51297;BME280;37380;45.186;9.792;2023-05-01T04:48:05;100886.06;;;15.41;100.00
51297;BME280;37380;45.186;9.792;2023-05-01T04:50:38;100852.66;;;15.37;100.00
51297;BME280;37380;45.186;9.792;2023-05-01T04:53:42;100853.44;;;15.33;100.00
51297;BME280;37380;45.186;9.792;2023-05-01T04:56:43;100885.19;;;15.40;100.00
51297;BME280;37380;45.186;9.792;2023-05-01T04:59:24;100864.78;;;15.29;100.00
51297;BME280;37380;45.186;9.792;2023-05-01T05:01:53;100900.09;;;15.40;100.00
51297;BME280;37380;45.186;9.792;2023-05-01T05:04:21;100898.38;;;15.42;100.00
51297;BME280;37380;45.186;9.792;2023-05-01T05:06:49;100852.50;;;15.29;100.00
51297;BME280;37380;45.186;9.792;2023-05-01T05:09:25;100849.72;;;15.20;100.00
51297;BME280;37380;45.186;9.792;2023-05-01T05:11:52;100850.53;;;15.16;100.00
51297;BME280;37380;45.186;9.792;2023-05-01T05:14:21;100911.81;;;15.57;100.00
51297;BME280;37380;45.186;9.792;2023-05-01T05:16:49;100896.88;;;15.56;100.00
51297;BME280;37380;45.186;9.792;2023-05-01T05:19:16;100916.53;;;15.75;100.00
51297;BME280;37380;45.186;9.792;2023-05-01T05:21:44;100912.75;;;15.59;100.00
51297;BME280;37380;45.186;9.792;2023-05-01T05:24:11;100894.59;;;15.75;100.00
51297;BME280;37380;45.186;9.792;2023-05-01T05:26:38;100902.50;;;15.76;100.00
51297;BME280;37380;45.186;9.792;2023-05-01T05:29:12;100857.34;;;15.53;100.00
51297;BME280;37380;45.186;9.792;2023-05-01T05:32:06;100931.22;;;16.14;100.00
51297;BME280;37380;45.186;9.792;2023-05-01T05:34:36;100918.09;;;16.17;100.00
51297;BME280;37380;45.186;9.792;2023-05-01T05:37:03;100919.25;;;16.36;100.00
51297;BME280;37380;45.186;9.792;2023-05-01T05:39:36;100885.69;;;16.26;100.00
51297;BME280;37380;45.186;9.792;2023-05-01T05:42:03;100903.56;;;16.45;100.00
51297;BME280;37380;45.186;9.792;2023-05-01T05:44:38;100913.06;;;16.33;100.00
51297;BME280;37380;45.186;9.792;2023-05-01T05:47:39;100902.63;;;16.43;100.00
51297;BME280;37380;45.186;9.792;2023-05-01T05:50:36;100937.84;;;17.08;99.11
51297;BME280;37380;45.186;9.792;2023-05-01T05:53:03;100938.75;;;17.11;98.69
51297;BME280;37380;45.186;9.792;2023-05-01T05:55:30;100887.50;;;16.94;97.98
51297;BME280;37380;45.186;9.792;2023-05-01T05:58:02;100946.75;;;18.04;93.56
51297;BME280;37380;45.186;9.792;2023-05-01T06:00:36;100938.72;;;17.92;91.20
51297;BME280;37380;45.186;9.792;2023-05-01T06:03:32;100883.72;;;17.53;91.25
51297;BME280;37380;45.186;9.792;2023-05-01T06:06:28;100946.25;;;17.55;93.78
51297;BME280;37380;45.186;9.792;2023-05-01T06:08:57;100914.25;;;17.28;93.26
51297;BME280;37380;45.186;9.792;2023-05-01T06:11:24;100950.13;;;17.07;95.25
51297;BME280;37380;45.186;9.792;2023-05-01T06:13:52;100943.50;;;17.45;93.11
51297;BME280;37380;45.186;9.792;2023-05-01T06:16:20;100951.19;;;17.23;94.24
51297;BME280;37380;45.186;9.792;2023-05-01T06:18:47;100920.41;;;17.22;93.60
51297;BME280;37380;45.186;9.792;2023-05-01T06:21:15;100942.47;;;17.30;90.60
51297;BME280;37380;45.186;9.792;2023-05-01T06:23:42;100888.66;;;17.19;88.09
51297;BME280;37380;45.186;9.792;2023-05-01T06:26:24;100943.06;;;17.05;87.48
51297;BME280;37380;45.186;9.792;2023-05-01T06:28:58;100898.16;;;17.03;88.58
51297;BME280;37380;45.186;9.792;2023-05-01T06:31:52;100959.72;;;16.99;89.52
51297;BME280;37380;45.186;9.792;2023-05-01T06:34:20;100950.25;;;17.18;89.34
51297;BME280;37380;45.186;9.792;2023-05-01T06:36:51;100937.03;;;17.13;85.80
51297;BME280;37380;45.186;9.792;2023-05-01T06:39:18;100969.53;;;17.11;85.43
51297;BME280;37380;45.186;9.792;2023-05-01T06:41:46;100953.31;;;16.79;87.63
51297;BME280;37380;45.186;9.792;2023-05-01T06:44:14;100943.91;;;17.04;81.24
51297;BME280;37380;45.186;9.792;2023-05-01T06:46:42;100915.47;;;16.81;81.49
51297;BME280;37380;45.186;9.792;2023-05-01T06:49:09;100913.72;;;16.80;80.61
51297;BME280;37380;45.186;9.792;2023-05-01T06:51:36;100934.03;;;16.84;80.48
51297;BME280;37380;45.186;9.792;2023-05-01T06:54:03;100933.97;;;16.81;76.91
51297;BME280;37380;45.186;9.792;2023-05-01T06:56:37;100979.03;;;16.98;77.51
51297;BME280;37380;45.186;9.792;2023-05-01T06:59:32;100958.75;;;16.92;77.43
51297;BME280;37380;45.186;9.792;2023-05-01T07:01:59;100971.09;;;16.93;77.89
51297;BME280;37380;45.186;9.792;2023-05-01T07:04:26;100965.72;;;16.87;77.77
51297;BME280;37380;45.186;9.792;2023-05-01T07:06:53;100972.13;;;17.06;77.34
51297;BME280;37380;45.186;9.792;2023-05-01T07:09:20;100980.22;;;17.20;77.74
51297;BME280;37380;45.186;9.792;2023-05-01T07:11:47;100997.31;;;17.53;74.99
51297;BME280;37380;45.186;9.792;2023-05-01T07:14:15;100987.19;;;17.15;76.84
51297;BME280;37380;45.186;9.792;2023-05-01T07:16:42;100990.75;;;17.17;74.38
51297;BME280;37380;45.186;9.792;2023-05-01T07:19:09;100995.09;;;17.13;73.02
51297;BME280;37380;45.186;9.792;2023-05-01T07:21:37;100888.59;;;16.44;72.47
51297;BME280;37380;45.186;9.792;2023-05-01T07:24:04;100940.31;;;16.95;72.09
51297;BME280;37380;45.186;9.792;2023-05-01T07:26:32;100969.47;;;17.05;70.64
51297;BME280;37380;45.186;9.792;2023-05-01T07:29:05;100974.41;;;16.80;73.18
51297;BME280;37380;45.186;9.792;2023-05-01T07:32:10;100991.59;;;17.16;72.92
51297;BME280;37380;45.186;9.792;2023-05-01T07:35:05;100950.31;;;17.24;69.45
51297;BME280;37380;45.186;9.792;2023-05-01T07:37:32;100961.19;;;17.52;69.21
51297;BME280;37380;45.186;9.792;2023-05-01T07:39:59;100939.19;;;16.77;69.41
51297;BME280;37380;45.186;9.792;2023-05-01T07:42:26;100944.72;;;16.98;70.17
51297;BME280;37380;45.186;9.792;2023-05-01T07:44:53;100945.03;;;17.24;68.98
51297;BME280;37380;45.186;9.792;2023-05-01T07:47:27;100984.47;;;17.83;69.04
51297;BME280;37380;45.186;9.792;2023-05-01T07:50:22;100992.44;;;17.90;67.67
51297;BME280;37380;45.186;9.792;2023-05-01T07:52:49;100974.34;;;17.46;66.50
51297;BME280;37380;45.186;9.792;2023-05-01T07:55:16;100987.84;;;17.76;70.63
51297;BME280;37380;45.186;9.792;2023-05-01T07:57:44;100981.88;;;17.93;66.26
51297;BME280;37380;45.186;9.792;2023-05-01T08:00:18;100952.75;;;17.86;66.85
51297;BME280;37380;45.186;9.792;2023-05-01T08:03:13;100987.56;;;18.43;65.83
51297;BME280;37380;45.186;9.792;2023-05-01T08:05:41;100901.75;;;18.00;67.39
51297;BME280;37380;45.186;9.792;2023-05-01T08:08:08;100973.78;;;18.89;64.17
51297;BME280;37380;45.186;9.792;2023-05-01T08:10:35;100976.38;;;18.80;63.19
51297;BME280;37380;45.186;9.792;2023-05-01T08:13:03;100995.16;;;19.32;63.62
51297;BME280;37380;45.186;9.792;2023-05-01T08:15:30;100981.94;;;19.50;61.98
51297;BME280;37380;45.186;9.792;2023-05-01T08:17:57;100969.66;;;19.80;60.91
51297;BME280;37380;45.186;9.792;2023-05-01T08:20:24;100955.50;;;19.78;60.57
51297;BME280;37380;45.186;9.792;2023-05-01T08:22:51;100988.22;;;20.40;58.66
51297;BME280;37380;45.186;9.792;2023-05-01T08:25:18;100999.44;;;21.46;53.72
51297;BME280;37380;45.186;9.792;2023-05-01T08:27:51;101000.50;;;20.99;55.89
51297;BME280;37380;45.186;9.792;2023-05-01T08:30:52;100968.69;;;20.82;53.17
51297;BME280;37380;45.186;9.792;2023-05-01T08:33:46;100967.91;;;19.88;54.46
51297;BME280;37380;45.186;9.792;2023-05-01T08:36:20;100972.31;;;20.29;53.57
51297;BME280;37380;45.186;9.792;2023-05-01T08:38:47;100952.56;;;18.86;59.51
51297;BME280;37380;45.186;9.792;2023-05-01T08:41:21;100991.78;;;20.17;56.93
51297;BME280;37380;45.186;9.792;2023-05-01T08:44:18;100987.34;;;20.21;56.61
51297;BME280;37380;45.186;9.792;2023-05-01T08:46:52;100990.88;;;20.35;54.01
51297;BME280;37380;45.186;9.792;2023-05-01T08:49:26;100958.94;;;19.40;54.04
51297;BME280;37380;45.186;9.792;2023-05-01T08:52:01;100953.44;;;18.88;57.12
51297;BME280;37380;45.186;9.792;2023-05-01T08:54:56;100948.09;;;17.64;61.02
51297;BME280;37380;45.186;9.792;2023-05-01T08:57:25;100987.41;;;18.19;60.28
51297;BME280;37380;45.186;9.792;2023-05-01T08:59:54;100918.44;;;17.93;59.65
51297;BME280;37380;45.186;9.792;2023-05-01T09:02:23;100992.06;;;18.58;58.28
51297;BME280;37380;45.186;9.792;2023-05-01T09:04:51;100998.97;;;18.35;59.40
51297;BME280;37380;45.186;9.792;2023-05-01T09:07:18;100973.94;;;17.90;59.52
51297;BME280;37380;45.186;9.792;2023-05-01T09:09:45;100961.88;;;18.25;59.42
51297;BME280;37380;45.186;9.792;2023-05-01T09:12:23;100985.84;;;18.45;60.67
51297;BME280;37380;45.186;9.792;2023-05-01T09:14:51;100997.16;;;18.29;60.56
51297;BME280;37380;45.186;9.792;2023-05-01T09:17:20;100972.06;;;17.79;66.12
51297;BME280;37380;45.186;9.792;2023-05-01T09:19:49;100979.47;;;18.23;67.19
51297;BME280;37380;45.186;9.792;2023-05-01T09:22:17;100985.03;;;17.59;67.91
51297;BME280;37380;45.186;9.792;2023-05-01T09:24:44;100987.94;;;17.82;74.28
51297;BME280;37380;45.186;9.792;2023-05-01T09:27:13;100982.75;;;17.95;77.44
51297;BME280;37380;45.186;9.792;2023-05-01T09:29:47;101000.66;;;18.26;72.70
51297;BME280;37380;45.186;9.792;2023-05-01T09:33:06;101016.69;;;18.45;77.95
51297;BME280;37380;45.186;9.792;2023-05-01T09:36:06;101022.06;;;18.57;74.26
51297;BME280;37380;45.186;9.792;2023-05-01T09:39:02;101031.09;;;18.81;78.77
51297;BME280;37380;45.186;9.792;2023-05-01T09:41:30;100982.50;;;17.67;80.89
51297;BME280;37380;45.186;9.792;2023-05-01T09:44:00;101000.44;;;17.99;81.68
51297;BME280;37380;45.186;9.792;2023-05-01T09:46:40;100820.94;;;17.23;82.48
51297;BME280;37380;45.186;9.792;2023-05-01T09:49:12;100806.06;;;17.35;76.97
51297;BME280;37380;45.186;9.792;2023-05-01T09:51:42;100891.38;;;18.27;73.07
51297;BME280;37380;45.186;9.792;2023-05-01T09:54:19;100925.31;;;19.08;72.12
51297;BME280;37380;45.186;9.792;2023-05-01T09:57:15;100820.78;;;18.20;65.17
51297;BME280;37380;45.186;9.792;2023-05-01T10:00:00;100814.31;;;17.77;67.57
51297;BME280;37380;45.186;9.792;2023-05-01T10:02:30;100982.06;;;19.90;63.90
51297;BME280;37380;45.186;9.792;2023-05-01T10:04:57;100950.22;;;19.99;64.17
51297;BME280;37380;45.186;9.792;2023-05-01T10:07:28;100835.22;;;20.16;60.82
51297;BME280;37380;45.186;9.792;2023-05-01T10:12:45;100801.47;;;18.37;66.51
51297;BME280;37380;45.186;9.792;2023-05-01T10:15:14;100812.31;;;19.78;62.55
51297;BME280;37380;45.186;9.792;2023-05-01T10:17:52;100959.94;;;19.88;61.96
51297;BME280;37380;45.186;9.792;2023-05-01T10:20:25;100810.53;;;19.14;61.45
51297;BME280;37380;45.186;9.792;2023-05-01T10:22:53;100814.94;;;18.98;61.14
51297;BME280;37380;45.186;9.792;2023-05-01T10:25:24;100868.88;;;19.61;63.33
51297;BME280;37380;45.186;9.792;2023-05-01T10:28:02;100822.94;;;19.76;57.39
51297;BME280;37380;45.186;9.792;2023-05-01T10:31:10;100790.25;;;19.77;55.35
51297;BME280;37380;45.186;9.792;2023-05-01T10:34:09;100786.69;;;19.83;52.57
51297;BME280;37380;45.186;9.792;2023-05-01T10:37:57;100976.72;;;20.57;51.61
51297;BME280;37380;45.186;9.792;2023-05-01T10:43:24;100971.31;;;20.94;51.81
51297;BME280;37380;45.186;9.792;2023-05-01T10:48:52;100922.84;;;21.96;47.81
51297;BME280;37380;45.186;9.792;2023-05-01T10:51:23;100931.91;;;21.72;47.61
51297;BME280;37380;45.186;9.792;2023-05-01T10:57:42;100932.84;;;22.65;45.52
51297;BME280;37380;45.186;9.792;2023-05-01T11:00:30;100936.84;;;22.25;49.69
51297;BME280;37380;45.186;9.792;2023-05-01T11:08:36;100856.44;;;20.31;49.03
51297;BME280;37380;45.186;9.792;2023-05-01T11:19:44;100887.34;;;20.61;50.08
51297;BME280;37380;45.186;9.792;2023-05-01T11:22:44;100928.69;;;21.16;50.18
51297;BME280;37380;45.186;9.792;2023-05-01T11:25:25;100908.44;;;20.90;51.97
51297;BME280;37380;45.186;9.792;2023-05-01T11:28:03;100924.38;;;20.98;50.46
51297;BME280;37380;45.186;9.792;2023-05-01T11:30:57;100823.78;;;20.09;49.04
51297;BME280;37380;45.186;9.792;2023-05-01T11:33:32;100889.16;;;20.39;50.41
51297;BME280;37380;45.186;9.792;2023-05-01T11:36:20;100849.34;;;20.27;49.13
51297;BME280;37380;45.186;9.792;2023-05-01T11:38:52;100875.88;;;20.39;49.34
51297;BME280;37380;45.186;9.792;2023-05-01T11:41:19;100887.34;;;20.55;49.46
51297;BME280;37380;45.186;9.792;2023-05-01T11:43:57;100873.13;;;20.65;49.31
51297;BME280;37380;45.186;9.792;2023-05-01T11:46:30;100874.13;;;20.30;49.30
51297;BME280;37380;45.186;9.792;2023-05-01T11:49:00;100912.19;;;20.25;48.31
51297;BME280;37380;45.186;9.792;2023-05-01T11:51:29;100892.72;;;20.33;49.07
51297;BME280;37380;45.186;9.792;2023-05-01T11:54:10;100833.53;;;19.82;49.63
51297;BME280;37380;45.186;9.792;2023-05-01T11:56:41;100803.44;;;20.06;49.58
51297;BME280;37380;45.186;9.792;2023-05-01T11:59:14;100873.09;;;20.79;46.95
51297;BME280;37380;45.186;9.792;2023-05-01T12:01:48;100820.81;;;20.90;47.11
51297;BME280;37380;45.186;9.792;2023-05-01T12:04:49;100884.66;;;20.72;48.75
51297;BME280;37380;45.186;9.792;2023-05-01T12:07:44;100870.53;;;20.48;49.62
51297;BME280;37380;45.186;9.792;2023-05-01T12:10:11;100863.41;;;20.70;47.73
51297;BME280;37380;45.186;9.792;2023-05-01T12:12:46;100843.94;;;20.67;48.02
51297;BME280;37380;45.186;9.792;2023-05-01T12:15:49;100870.44;;;20.79;48.05
51297;BME280;37380;45.186;9.792;2023-05-01T12:18:47;100837.28;;;21.47;46.23
51297;BME280;37380;45.186;9.792;2023-05-01T12:21:14;100794.84;;;21.38;46.20
51297;BME280;37380;45.186;9.792;2023-05-01T12:23:42;100825.69;;;21.56;45.95
51297;BME280;37380;45.186;9.792;2023-05-01T12:26:17;100850.13;;;20.70;47.45
51297;BME280;37380;45.186;9.792;2023-05-01T12:31:48;100871.53;;;20.10;51.17
51297;BME280;37380;45.186;9.792;2023-05-01T12:34:16;100870.63;;;19.62;53.15
51297;BME280;37380;45.186;9.792;2023-05-01T12:36:52;100867.13;;;19.63;54.21
51297;BME280;37380;45.186;9.792;2023-05-01T12:39:19;100734.59;;;18.77;55.05
51297;BME280;37380;45.186;9.792;2023-05-01T12:41:50;100810.56;;;19.48;54.21
51297;BME280;37380;45.186;9.792;2023-05-01T12:44:23;100887.31;;;20.50;53.61
51297;BME280;37380;45.186;9.792;2023-05-01T12:47:01;100909.47;;;20.43;53.83
51297;BME280;37380;45.186;9.792;2023-05-01T12:49:30;100889.09;;;20.67;52.20
51297;BME280;37380;45.186;9.792;2023-05-01T12:52:00;100823.44;;;20.93;49.33
51297;BME280;37380;45.186;9.792;2023-05-01T12:54:28;100818.84;;;21.17;50.15
51297;BME280;37380;45.186;9.792;2023-05-01T12:57:10;100886.53;;;21.91;47.87
51297;BME280;37380;45.186;9.792;2023-05-01T12:59:42;100831.44;;;20.90;51.90
51297;BME280;37380;45.186;9.792;2023-05-01T13:02:14;100817.25;;;20.97;50.64
51297;BME280;37380;45.186;9.792;2023-05-01T13:04:50;100787.13;;;20.98;50.24
51297;BME280;37380;45.186;9.792;2023-05-01T13:07:51;100804.34;;;21.61;48.07
51297;BME280;37380;45.186;9.792;2023-05-01T13:10:56;100890.44;;;22.48;47.98
51297;BME280;37380;45.186;9.792;2023-05-01T13:13:25;100888.25;;;22.83;47.80
51297;BME280;37380;45.186;9.792;2023-05-01T13:16:15;100825.13;;;22.13;48.38
51297;BME280;37380;45.186;9.792;2023-05-01T13:19:10;100824.50;;;21.86;48.01
51297;BME280;37380;45.186;9.792;2023-05-01T13:21:48;100807.56;;;20.86;50.58
51297;BME280;37380;45.186;9.792;2023-05-01T13:24:49;100829.22;;;21.57;49.90
51297;BME280;37380;45.186;9.792;2023-05-01T13:27:27;100814.41;;;21.20;51.57
51297;BME280;37380;45.186;9.792;2023-05-01T13:30:32;100896.75;;;21.28;54.95
51297;BME280;37380;45.186;9.792;2023-05-01T13:33:02;100799.53;;;20.96;59.54
51297;BME280;37380;45.186;9.792;2023-05-01T13:35:31;100802.34;;;20.64;63.72
51297;BME280;37380;45.186;9.792;2023-05-01T13:37:58;100853.63;;;20.80;63.49
51297;BME280;37380;45.186;9.792;2023-05-01T13:40:26;100844.88;;;20.58;67.25
51297;BME280;37380;45.186;9.792;2023-05-01T13:42:54;100755.75;;;19.91;69.07
51297;BME280;37380;45.186;9.792;2023-05-01T13:45:21;100873.97;;;20.81;70.30
51297;BME280;37380;45.186;9.792;2023-05-01T13:47:48;100852.91;;;20.23;71.49
51297;BME280;37380;45.186;9.792;2023-05-01T13:50:16;100857.38;;;20.04;69.11
51297;BME280;37380;45.186;9.792;2023-05-01T13:52:44;100905.81;;;20.90;73.04
51297;BME280;37380;45.186;9.792;2023-05-01T13:55:11;100825.41;;;20.48;72.25
51297;BME280;37380;45.186;9.792;2023-05-01T13:57:46;100817.41;;;20.68;68.68
51297;BME280;37380;45.186;9.792;2023-05-01T14:00:40;100887.09;;;21.13;67.08
51297;BME280;37380;45.186;9.792;2023-05-01T14:03:11;100843.13;;;20.46;69.37
51297;BME280;37380;45.186;9.792;2023-05-01T14:05:39;100799.75;;;20.44;68.04
51297;BME280;37380;45.186;9.792;2023-05-01T14:08:07;100834.38;;;20.17;70.00
51297;BME280;37380;45.186;9.792;2023-05-01T14:10:34;100741.63;;;19.64;71.36
51297;BME280;37380;45.186;9.792;2023-05-01T14:13:01;100763.72;;;19.74;69.20
51297;BME280;37380;45.186;9.792;2023-05-01T14:15:32;100789.16;;;20.44;67.84